Time,TemperatureF,DewpointF,PressureIn,WindDirection,WindDirectionDegrees,WindSpeedMPH,WindSpeedGustMPH,Humidity,HourlyPrecipIn,Conditions,Clouds,dailyrainin,SoftwareType,DateUTC
2013-11-12 00:00:00,30.1,28.6,30.40,NW,315,5.0,7.0,94,0.00,,,0.08,Wunderground v.1.15,2013-11-12 05:00:00,
2013-11-12 00:05:00,29.9,28.1,30.40,WNW,284,5.0,7.0,93,0.00,,,0.08,Wunderground v.1.15,2013-11-12 05:05:00,
2013-11-12 00:10:00,29.8,28.0,30.40,NW,304,5.0,5.0,93,0.00,,,0.08,Wunderground v.1.15,2013-11-12 05:10:00,
2013-11-12 00:15:00,29.7,27.9,30.41,NW,315,5.0,5.0,93,0.00,,,0.08,Wunderground v.1.15,2013-11-12 05:15:00,
2013-11-12 00:20:00,29.7,27.7,30.42,NNW,338,4.0,5.0,92,0.00,,,0.08,Wunderground v.1.15,2013-11-12 05:20:00,
2013-11-12 00:25:00,29.7,27.7,30.42,North,360,4.0,5.0,92,0.00,,,0.08,Wunderground v.1.15,2013-11-12 05:25:00,
2013-11-12 00:30:00,29.6,27.6,30.42,NW,310,4.0,4.0,92,0.00,,,0.08,Wunderground v.1.15,2013-11-12 05:30:00,
2013-11-12 00:35:00,29.6,27.3,30.42,NW,317,5.0,6.0,91,0.00,,,0.08,Wunderground v.1.15,2013-11-12 05:35:00,
2013-11-12 00:40:00,29.5,27.2,30.42,North,355,5.0,6.0,91,0.00,,,0.08,Wunderground v.1.15,2013-11-12 05:40:00,
2013-11-12 00:45:00,29.5,27.2,30.42,NNW,333,5.0,9.0,91,0.00,,,0.08,Wunderground v.1.15,2013-11-12 05:45:00,
2013-11-12 00:50:00,29.5,27.2,30.43,NW,315,5.0,5.0,91,0.00,,,0.08,Wunderground v.1.15,2013-11-12 05:50:00,
2013-11-12 01:00:00,29.4,27.1,30.43,WNW,300,4.0,4.0,91,0.00,,,0.08,Wunderground v.1.15,2013-11-12 06:00:00,
2013-11-12 01:05:00,29.4,27.1,30.43,NW,321,3.0,5.0,91,0.00,,,0.00,Wunderground v.1.15,2013-11-12 06:05:00,
2013-11-12 01:10:00,29.3,26.7,30.43,North,349,5.0,5.0,90,0.00,,,0.00,Wunderground v.1.15,2013-11-12 06:10:00,
2013-11-12 01:15:00,29.2,26.6,30.43,NW,324,5.0,6.0,90,0.00,,,0.00,Wunderground v.1.15,2013-11-12 06:15:00,
2013-11-12 01:20:00,29.2,26.6,30.44,NW,325,5.0,5.0,90,0.00,,,0.00,Wunderground v.1.15,2013-11-12 06:20:00,
2013-11-12 01:25:00,29.1,26.5,30.43,NNW,336,6.0,12.0,90,0.00,,,0.00,Wunderground v.1.15,2013-11-12 06:25:00,
2013-11-12 01:30:00,29.0,26.2,30.44,NNW,341,6.0,6.0,89,0.00,,,0.00,Wunderground v.1.15,2013-11-12 06:30:00,
2013-11-12 01:40:00,28.7,25.6,30.44,NNW,331,5.0,5.0,88,0.00,,,0.00,Wunderground v.1.15,2013-11-12 06:40:00,
2013-11-12 01:50:00,28.3,25.2,30.44,NW,318,6.0,6.0,88,0.00,,,0.00,Wunderground v.1.15,2013-11-12 06:50:00,
2013-11-12 01:55:00,28.1,25.0,30.44,North,351,5.0,6.0,88,0.00,,,0.00,Wunderground v.1.15,2013-11-12 06:55:00,
2013-11-12 02:00:00,28.0,24.9,30.45,NW,309,4.0,4.0,88,0.00,,,0.00,Wunderground v.1.15,2013-11-12 07:00:00,
2013-11-12 02:05:00,27.9,24.8,30.45,NW,309,4.0,5.0,88,0.00,,,0.00,Wunderground v.1.15,2013-11-12 07:05:00,
2013-11-12 02:10:00,27.8,24.7,30.45,NW,317,4.0,5.0,88,0.00,,,0.00,Wunderground v.1.15,2013-11-12 07:10:00,
2013-11-12 02:15:00,27.8,24.7,30.45,NW,319,5.0,5.0,88,0.00,,,0.00,Wunderground v.1.15,2013-11-12 07:15:00,
2013-11-12 02:20:00,27.8,24.7,30.45,NNW,327,5.0,5.0,88,0.00,,,0.00,Wunderground v.1.15,2013-11-12 07:20:00,
2013-11-12 02:25:00,27.7,24.6,30.45,NW,308,5.0,5.0,88,0.00,,,0.00,Wunderground v.1.15,2013-11-12 07:25:00,
2013-11-12 02:35:00,27.5,24.4,30.46,NNW,336,4.0,6.0,88,0.00,,,0.00,Wunderground v.1.15,2013-11-12 07:35:00,
2013-11-12 02:40:00,27.4,24.3,30.46,NW,312,5.0,5.0,88,0.00,,,0.00,Wunderground v.1.15,2013-11-12 07:40:00,
2013-11-12 02:45:00,27.4,24.3,30.46,NNW,329,6.0,6.0,88,0.00,,,0.00,Wunderground v.1.15,2013-11-12 07:45:00,
2013-11-12 02:50:00,27.4,24.0,30.47,NW,311,5.0,5.0,87,0.00,,,0.00,Wunderground v.1.15,2013-11-12 07:50:00,
2013-11-12 02:55:00,27.3,23.9,30.47,WNW,291,5.0,5.0,87,0.00,,,0.00,Wunderground v.1.15,2013-11-12 07:55:00,
2013-11-12 03:00:00,27.2,23.8,30.47,NW,323,5.0,5.0,87,0.00,,,0.00,Wunderground v.1.15,2013-11-12 08:00:00,
2013-11-12 03:05:00,27.2,23.8,30.47,North,5,4.0,5.0,87,0.00,,,0.00,Wunderground v.1.15,2013-11-12 08:05:00,
2013-11-12 03:10:00,27.2,23.8,30.48,NW,325,5.0,5.0,87,0.00,,,0.00,Wunderground v.1.15,2013-11-12 08:10:00,
2013-11-12 03:15:00,27.1,23.7,30.48,NW,304,5.0,5.0,87,0.00,,,0.00,Wunderground v.1.15,2013-11-12 08:15:00,
2013-11-12 03:25:00,26.8,23.4,30.48,NW,323,4.0,5.0,87,0.00,,,0.00,Wunderground v.1.15,2013-11-12 08:25:00,
2013-11-12 03:30:00,26.7,23.1,30.48,North,350,5.0,5.0,86,0.00,,,0.00,Wunderground v.1.15,2013-11-12 08:30:00,
2013-11-12 03:35:00,26.6,23.0,30.49,NW,317,6.0,10.0,86,0.00,,,0.00,Wunderground v.1.15,2013-11-12 08:35:00,
2013-11-12 03:45:00,26.5,22.9,30.49,NNW,341,6.0,8.0,86,0.00,,,0.00,Wunderground v.1.15,2013-11-12 08:45:00,
2013-11-12 03:50:00,26.3,23.0,30.49,NW,322,4.0,8.0,87,0.00,,,0.00,Wunderground v.1.15,2013-11-12 08:50:00,
2013-11-12 03:55:00,26.2,22.6,30.49,NW,311,5.0,8.0,86,0.00,,,0.00,Wunderground v.1.15,2013-11-12 08:55:00,
2013-11-12 04:00:00,26.0,22.4,30.49,NNW,342,5.0,5.0,86,0.00,,,0.00,Wunderground v.1.15,2013-11-12 09:00:00,
2013-11-12 04:05:00,25.8,21.9,30.49,NNW,343,5.0,5.0,85,0.00,,,0.00,Wunderground v.1.15,2013-11-12 09:05:00,
2013-11-12 04:10:00,25.7,22.1,30.50,NW,318,5.0,6.0,86,0.00,,,0.00,Wunderground v.1.15,2013-11-12 09:10:00,
2013-11-12 04:15:00,25.4,21.8,30.50,WNW,288,5.0,6.0,86,0.00,,,0.00,Wunderground v.1.15,2013-11-12 09:15:00,
2013-11-12 04:20:00,25.3,21.7,30.50,NNW,342,5.0,5.0,86,0.00,,,0.00,Wunderground v.1.15,2013-11-12 09:20:00,
2013-11-12 04:30:00,25.1,21.5,30.51,NW,319,4.0,4.0,86,0.00,,,0.00,Wunderground v.1.15,2013-11-12 09:30:00,
2013-11-12 04:35:00,25.0,21.4,30.51,NNW,329,4.0,5.0,86,0.00,,,0.00,Wunderground v.1.15,2013-11-12 09:35:00,
2013-11-12 04:40:00,25.1,21.8,30.51,NW,308,4.0,4.0,87,0.00,,,0.00,Wunderground v.1.15,2013-11-12 09:40:00,
2013-11-12 04:50:00,25.2,21.6,30.51,NW,317,4.0,6.0,86,0.00,,,0.00,Wunderground v.1.15,2013-11-12 09:50:00,
2013-11-12 04:55:00,25.1,21.5,30.52,NW,324,4.0,6.0,86,0.00,,,0.00,Wunderground v.1.15,2013-11-12 09:55:00,
2013-11-12 05:00:00,25.0,21.7,30.52,NW,309,4.0,4.0,87,0.00,,,0.00,Wunderground v.1.15,2013-11-12 10:00:00,
2013-11-12 05:10:00,25.2,21.9,30.53,NW,319,4.0,4.0,87,0.00,,,0.00,Wunderground v.1.15,2013-11-12 10:10:00,
2013-11-12 05:15:00,25.3,22.0,30.52,WNW,294,4.0,5.0,87,0.00,,,0.00,Wunderground v.1.15,2013-11-12 10:15:00,
2013-11-12 05:20:00,25.4,22.1,30.53,NW,309,4.0,9.0,87,0.00,,,0.00,Wunderground v.1.15,2013-11-12 10:20:00,
2013-11-12 05:25:00,25.6,22.3,30.53,NNE,17,5.0,9.0,87,0.00,,,0.00,Wunderground v.1.15,2013-11-12 10:25:00,
2013-11-12 05:30:00,25.7,22.4,30.53,WNW,303,6.0,6.0,87,0.00,,,0.00,Wunderground v.1.15,2013-11-12 10:30:00,
2013-11-12 05:40:00,25.8,22.5,30.54,NW,315,5.0,5.0,87,0.00,,,0.00,Wunderground v.1.15,2013-11-12 10:40:00,
2013-11-12 05:45:00,25.8,22.5,30.54,NW,309,5.0,5.0,87,0.00,,,0.00,Wunderground v.1.15,2013-11-12 10:45:00,
2013-11-12 05:50:00,25.8,22.5,30.54,NW,317,5.0,6.0,87,0.00,,,0.00,Wunderground v.1.15,2013-11-12 10:50:00,
2013-11-12 05:55:00,25.7,22.1,30.54,NW,324,6.0,6.0,86,0.00,,,0.00,Wunderground v.1.15,2013-11-12 10:55:00,
2013-11-12 06:00:00,25.7,22.1,30.54,NW,306,6.0,6.0,86,0.00,,,0.00,Wunderground v.1.15,2013-11-12 11:00:00,
2013-11-12 06:10:00,25.7,22.4,30.55,NW,314,4.0,11.0,87,0.00,,,0.00,Wunderground v.1.15,2013-11-12 11:10:00,
2013-11-12 06:15:00,25.6,22.3,30.55,NNW,331,4.0,11.0,87,0.00,,,0.00,Wunderground v.1.15,2013-11-12 11:15:00,
2013-11-12 06:20:00,25.6,22.3,30.55,NW,321,5.0,11.0,87,0.00,,,0.00,Wunderground v.1.15,2013-11-12 11:20:00,
2013-11-12 06:25:00,25.5,21.9,30.56,NW,312,5.0,11.0,86,0.00,,,0.00,Wunderground v.1.15,2013-11-12 11:25:00,
2013-11-12 06:30:00,25.3,22.0,30.56,NNW,328,5.0,5.0,87,0.00,,,0.00,Wunderground v.1.15,2013-11-12 11:30:00,
2013-11-12 06:35:00,25.1,21.8,30.56,NNW,328,3.0,11.0,87,0.00,,,0.00,Wunderground v.1.15,2013-11-12 11:35:00,
2013-11-12 06:40:00,25.0,21.9,30.57,WNW,300,3.0,3.0,88,0.00,,,0.00,Wunderground v.1.15,2013-11-12 11:40:00,
2013-11-12 06:45:00,25.0,21.9,30.57,NW,304,3.0,11.0,88,0.00,,,0.00,Wunderground v.1.15,2013-11-12 11:45:00,
2013-11-12 06:50:00,25.1,22.0,30.57,WNW,292,3.0,3.0,88,0.00,,,0.00,Wunderground v.1.15,2013-11-12 11:50:00,
2013-11-12 06:55:00,25.1,22.3,30.57,WNW,285,3.0,5.0,89,0.00,,,0.00,Wunderground v.1.15,2013-11-12 11:55:00,
2013-11-12 07:00:00,25.1,22.3,30.57,WNW,289,3.0,11.0,89,0.00,,,0.00,Wunderground v.1.15,2013-11-12 12:00:00,
2013-11-12 07:05:00,25.1,22.3,30.58,NW,309,4.0,11.0,89,0.00,,,0.00,Wunderground v.1.15,2013-11-12 12:05:00,
2013-11-12 07:15:00,25.0,21.9,30.58,WNW,294,4.0,11.0,88,0.00,,,0.00,Wunderground v.1.15,2013-11-12 12:15:00,
2013-11-12 07:20:00,24.9,22.1,30.59,NW,325,4.0,4.0,89,0.00,,,0.00,Wunderground v.1.15,2013-11-12 12:20:00,
2013-11-12 07:25:00,24.9,22.1,30.59,NW,318,4.0,11.0,89,0.00,,,0.00,Wunderground v.1.15,2013-11-12 12:25:00,
2013-11-12 07:30:00,24.8,22.0,30.59,NW,323,4.0,11.0,89,0.00,,,0.00,Wunderground v.1.15,2013-11-12 12:30:00,
2013-11-12 07:35:00,24.8,22.0,30.60,NW,325,4.0,11.0,89,0.00,,,0.00,Wunderground v.1.15,2013-11-12 12:35:00,
2013-11-12 07:40:00,24.9,22.1,30.60,NW,318,4.0,11.0,89,0.00,,,0.00,Wunderground v.1.15,2013-11-12 12:40:00,
2013-11-12 07:45:00,24.9,22.1,30.60,NW,315,4.0,11.0,89,0.00,,,0.00,Wunderground v.1.15,2013-11-12 12:45:00,
2013-11-12 07:50:00,25.0,22.2,30.61,NW,310,4.0,11.0,89,0.00,,,0.00,Wunderground v.1.15,2013-11-12 12:50:00,
2013-11-12 07:55:00,25.1,22.0,30.61,NW,309,5.0,11.0,88,0.00,,,0.00,Wunderground v.1.15,2013-11-12 12:55:00,
2013-11-12 08:00:00,25.1,22.0,30.61,NW,317,5.0,5.0,88,0.00,,,0.00,Wunderground v.1.15,2013-11-12 13:00:00,
2013-11-12 08:05:00,25.1,21.8,30.61,NW,326,5.0,11.0,87,0.00,,,0.00,Wunderground v.1.15,2013-11-12 13:05:00,
2013-11-12 08:10:00,25.1,21.8,30.62,NW,317,5.0,11.0,87,0.00,,,0.00,Wunderground v.1.15,2013-11-12 13:10:00,
2013-11-12 08:20:00,25.1,21.8,30.62,NW,315,6.0,6.0,87,0.00,,,0.00,Wunderground v.1.15,2013-11-12 13:20:00,
2013-11-12 08:30:00,25.4,22.1,30.63,NW,311,4.0,4.0,87,0.00,,,0.00,Wunderground v.1.15,2013-11-12 13:30:00,
2013-11-12 08:35:00,25.6,22.3,30.63,NW,323,5.0,8.0,87,0.00,,,0.00,Wunderground v.1.15,2013-11-12 13:35:00,
2013-11-12 08:40:00,25.7,22.1,30.63,NNW,333,5.0,11.0,86,0.00,,,0.00,Wunderground v.1.15,2013-11-12 13:40:00,
2013-11-12 08:45:00,25.8,22.2,30.63,WNW,288,5.0,11.0,86,0.00,,,0.00,Wunderground v.1.15,2013-11-12 13:45:00,
2013-11-12 08:50:00,25.9,22.3,30.64,NW,307,5.0,5.0,86,0.00,,,0.00,Wunderground v.1.15,2013-11-12 13:50:00,
2013-11-12 09:00:00,26.1,22.2,30.64,NNW,342,5.0,11.0,85,0.00,,,0.00,Wunderground v.1.15,2013-11-12 14:00:00,
2013-11-12 09:05:00,26.2,22.6,30.64,NNW,327,4.0,11.0,86,0.00,,,0.00,Wunderground v.1.15,2013-11-12 14:05:00,
2013-11-12 09:10:00,26.3,22.7,30.64,NW,325,3.0,11.0,86,0.00,,,0.00,Wunderground v.1.15,2013-11-12 14:10:00,
2013-11-12 09:20:00,26.4,22.8,30.64,North,355,4.0,11.0,86,0.00,,,0.00,Wunderground v.1.15,2013-11-12 14:20:00,
2013-11-12 09:25:00,26.7,23.1,30.64,NW,313,4.0,11.0,86,0.00,,,0.00,Wunderground v.1.15,2013-11-12 14:25:00,
2013-11-12 09:35:00,26.8,22.3,30.65,NNW,329,6.0,11.0,83,0.00,,,0.00,Wunderground v.1.15,2013-11-12 14:35:00,
2013-11-12 09:40:00,26.7,22.2,30.65,NW,306,6.0,6.0,83,0.00,,,0.00,Wunderground v.1.15,2013-11-12 14:40:00,
2013-11-12 09:45:00,26.8,22.6,30.65,NW,314,6.0,11.0,84,0.00,,,0.00,Wunderground v.1.15,2013-11-12 14:45:00,
2013-11-12 09:50:00,26.7,21.9,30.65,NNW,334,5.0,11.0,82,0.00,,,0.00,Wunderground v.1.15,2013-11-12 14:50:00,
2013-11-12 09:55:00,26.8,22.6,30.65,NW,322,5.0,11.0,84,0.00,,,0.00,Wunderground v.1.15,2013-11-12 14:55:00,
2013-11-12 10:00:00,26.7,21.9,30.66,NNW,334,4.0,11.0,82,0.00,,,0.00,Wunderground v.1.15,2013-11-12 15:00:00,
2013-11-12 10:05:00,26.8,22.3,30.66,NW,315,5.0,11.0,83,0.00,,,0.00,Wunderground v.1.15,2013-11-12 15:05:00,
2013-11-12 10:10:00,27.2,23.0,30.66,WNW,297,4.0,4.0,84,0.00,,,0.00,Wunderground v.1.15,2013-11-12 15:10:00,
2013-11-12 10:15:00,27.5,23.0,30.66,NW,304,4.0,6.0,83,0.00,,,0.00,Wunderground v.1.15,2013-11-12 15:15:00,
2013-11-12 10:20:00,27.7,23.2,30.66,NW,326,5.0,11.0,83,0.00,,,0.00,Wunderground v.1.15,2013-11-12 15:20:00,
2013-11-12 10:25:00,27.7,23.5,30.67,NNW,330,5.0,11.0,84,0.00,,,0.00,Wunderground v.1.15,2013-11-12 15:25:00,
2013-11-12 10:30:00,27.8,23.6,30.67,NW,319,5.0,11.0,84,0.00,,,0.00,Wunderground v.1.15,2013-11-12 15:30:00,
2013-11-12 10:35:00,27.7,23.2,30.67,NW,321,5.0,11.0,83,0.00,,,0.00,Wunderground v.1.15,2013-11-12 15:35:00,
2013-11-12 10:40:00,28.0,24.1,30.67,WNW,284,5.0,11.0,85,0.00,,,0.00,Wunderground v.1.15,2013-11-12 15:40:00,
2013-11-12 10:45:00,28.1,23.6,30.67,NW,318,5.0,11.0,83,0.00,,,0.00,Wunderground v.1.15,2013-11-12 15:45:00,
2013-11-12 10:55:00,28.1,23.6,30.67,NW,314,6.0,11.0,83,0.00,,,0.00,Wunderground v.1.15,2013-11-12 15:55:00,
2013-11-12 11:00:00,28.1,23.6,30.67,West,272,6.0,11.0,83,0.00,,,0.00,Wunderground v.1.15,2013-11-12 16:00:00,
2013-11-12 11:05:00,28.5,24.6,30.67,West,279,5.0,11.0,85,0.00,,,0.00,Wunderground v.1.15,2013-11-12 16:05:00,
2013-11-12 11:15:00,28.5,24.0,30.67,NW,312,6.0,6.0,83,0.00,,,0.00,Wunderground v.1.15,2013-11-12 16:15:00,
2013-11-12 11:20:00,28.7,24.2,30.67,NW,314,5.0,11.0,83,0.00,,,0.00,Wunderground v.1.15,2013-11-12 16:20:00,
2013-11-12 11:25:00,28.9,25.0,30.68,WNW,298,4.0,11.0,85,0.00,,,0.00,Wunderground v.1.15,2013-11-12 16:25:00,
2013-11-12 11:30:00,29.0,24.8,30.68,WNW,296,5.0,5.0,84,0.00,,,0.00,Wunderground v.1.15,2013-11-12 16:30:00,
2013-11-12 11:40:00,29.4,25.4,30.68,NNW,332,4.0,11.0,85,0.00,,,0.00,Wunderground v.1.15,2013-11-12 16:40:00,
2013-11-12 11:45:00,29.3,25.1,30.68,NNW,329,5.0,11.0,84,0.00,,,0.00,Wunderground v.1.15,2013-11-12 16:45:00,
2013-11-12 11:50:00,29.1,24.9,30.68,NW,323,6.0,11.0,84,0.00,,,0.00,Wunderground v.1.15,2013-11-12 16:50:00,
2013-11-12 11:55:00,29.0,24.8,30.68,West,276,5.0,11.0,84,0.00,,,0.00,Wunderground v.1.15,2013-11-12 16:55:00,
2013-11-12 12:00:00,28.8,24.6,30.68,NW,310,6.0,6.0,84,0.00,,,0.00,Wunderground v.1.15,2013-11-12 17:00:00,
2013-11-12 12:05:00,28.8,24.9,30.68,NW,315,5.0,7.0,85,0.00,,,0.00,Wunderground v.1.15,2013-11-12 17:05:00,
2013-11-12 12:10:00,29.0,25.1,30.68,North,355,5.0,5.0,85,0.00,,,0.00,Wunderground v.1.15,2013-11-12 17:10:00,
2013-11-12 12:15:00,29.2,25.0,30.67,NNW,329,5.0,11.0,84,0.00,,,0.00,Wunderground v.1.15,2013-11-12 17:15:00,
2013-11-12 12:25:00,29.5,25.5,30.67,NW,324,6.0,11.0,85,0.00,,,0.00,Wunderground v.1.15,2013-11-12 17:25:00,
2013-11-12 12:30:00,29.5,25.5,30.67,NNW,333,6.0,11.0,85,0.00,,,0.00,Wunderground v.1.15,2013-11-12 17:30:00,
2013-11-12 12:40:00,29.9,26.2,30.67,West,275,6.0,6.0,86,0.00,,,0.00,Wunderground v.1.15,2013-11-12 17:40:00,
2013-11-12 12:45:00,30.0,26.0,30.67,NNW,344,6.0,11.0,85,0.00,,,0.00,Wunderground v.1.15,2013-11-12 17:45:00,
2013-11-12 12:50:00,30.0,26.3,30.66,NW,308,6.0,11.0,86,0.00,,,0.01,Wunderground v.1.15,2013-11-12 17:50:00,
2013-11-12 12:55:00,30.0,26.0,30.66,West,270,6.0,11.0,85,0.00,,,0.01,Wunderground v.1.15,2013-11-12 17:55:00,
2013-11-12 13:00:00,30.0,26.0,30.67,NW,315,7.0,11.0,85,0.00,,,0.01,Wunderground v.1.15,2013-11-12 18:00:00,
2013-11-12 13:05:00,30.1,26.4,30.66,WNW,303,6.0,11.0,86,0.00,,,0.01,Wunderground v.1.15,2013-11-12 18:05:00,
2013-11-12 13:10:00,29.9,26.2,30.66,West,277,6.0,6.0,86,0.00,,,0.01,Wunderground v.1.15,2013-11-12 18:10:00,
2013-11-12 13:15:00,30.2,26.5,30.66,NNW,338,5.0,11.0,86,0.00,,,0.01,Wunderground v.1.15,2013-11-12 18:15:00,
2013-11-12 13:20:00,30.3,26.6,30.66,NNW,327,5.0,11.0,86,0.00,,,0.02,Wunderground v.1.15,2013-11-12 18:20:00,
2013-11-12 13:25:00,30.7,26.7,30.66,NW,310,6.0,11.0,85,0.00,,,0.02,Wunderground v.1.15,2013-11-12 18:25:00,
2013-11-12 13:30:00,30.4,26.1,30.66,NW,313,6.0,6.0,84,0.00,,,0.02,Wunderground v.1.15,2013-11-12 18:30:00,
2013-11-12 13:35:00,30.5,26.5,30.66,NW,323,5.0,11.0,85,0.00,,,0.02,Wunderground v.1.15,2013-11-12 18:35:00,
2013-11-12 13:45:00,31.3,26.4,30.66,NNW,328,6.0,11.0,82,0.00,,,0.02,Wunderground v.1.15,2013-11-12 18:45:00,
2013-11-12 13:50:00,31.1,26.8,30.66,NW,325,4.0,11.0,84,0.00,,,0.02,Wunderground v.1.15,2013-11-12 18:50:00,
2013-11-12 13:55:00,31.3,26.7,30.66,West,275,4.0,11.0,83,0.00,,,0.02,Wunderground v.1.15,2013-11-12 18:55:00,
2013-11-12 14:05:00,31.2,26.9,30.66,WNW,297,5.0,11.0,84,0.00,,,0.02,Wunderground v.1.15,2013-11-12 19:05:00,
2013-11-12 14:10:00,31.6,27.6,30.66,NW,306,5.0,5.0,85,0.00,,,0.02,Wunderground v.1.15,2013-11-12 19:10:00,
2013-11-12 14:15:00,31.5,26.9,30.66,West,273,5.0,11.0,83,0.00,,,0.02,Wunderground v.1.15,2013-11-12 19:15:00,
2013-11-12 14:20:00,31.7,27.1,30.66,WNW,301,5.0,11.0,83,0.00,,,0.02,Wunderground v.1.15,2013-11-12 19:20:00,
2013-11-12 14:25:00,31.7,26.8,30.66,WNW,300,6.0,11.0,82,0.00,,,0.02,Wunderground v.1.15,2013-11-12 19:25:00,
2013-11-12 14:30:00,31.6,27.0,30.66,NW,315,6.0,11.0,83,0.00,,,0.02,Wunderground v.1.15,2013-11-12 19:30:00,
2013-11-12 14:35:00,31.5,26.3,30.66,WNW,290,6.0,11.0,81,0.00,,,0.02,Wunderground v.1.15,2013-11-12 19:35:00,
2013-11-12 14:40:00,31.7,26.8,30.66,WNW,299,6.0,6.0,82,0.00,,,0.02,Wunderground v.1.15,2013-11-12 19:40:00,
2013-11-12 14:45:00,32.0,27.1,30.66,NW,317,5.0,11.0,82,0.00,,,0.02,Wunderground v.1.15,2013-11-12 19:45:00,
2013-11-12 14:50:00,32.1,26.9,30.66,WNW,296,5.0,5.0,81,0.00,,,0.02,Wunderground v.1.15,2013-11-12 19:50:00,
2013-11-12 15:00:00,32.0,26.8,30.66,NNW,329,5.0,5.0,81,0.00,,,0.02,Wunderground v.1.15,2013-11-12 20:00:00,
2013-11-12 15:05:00,32.1,26.6,30.66,West,269,4.0,11.0,80,0.00,,,0.02,Wunderground v.1.15,2013-11-12 20:05:00,
2013-11-12 15:15:00,32.1,26.6,30.66,NW,323,4.0,8.0,80,0.00,,,0.02,Wunderground v.1.15,2013-11-12 20:15:00,
2013-11-12 15:20:00,31.9,26.4,30.66,NW,315,5.0,5.0,80,0.00,,,0.02,Wunderground v.1.15,2013-11-12 20:20:00,
2013-11-12 15:25:00,32.0,26.5,30.66,NW,321,5.0,11.0,80,0.00,,,0.02,Wunderground v.1.15,2013-11-12 20:25:00,
2013-11-12 15:30:00,32.4,26.9,30.66,NW,309,3.0,3.0,80,0.00,,,0.02,Wunderground v.1.15,2013-11-12 20:30:00,
2013-11-12 15:35:00,33.0,27.2,30.66,WNW,286,4.0,4.0,79,0.00,,,0.02,Wunderground v.1.15,2013-11-12 20:35:00,
2013-11-12 15:45:00,32.9,27.1,30.66,NW,324,4.0,11.0,79,0.00,,,0.02,Wunderground v.1.15,2013-11-12 20:45:00,
2013-11-12 15:50:00,32.7,26.9,30.66,NW,319,3.0,11.0,79,0.00,,,0.02,Wunderground v.1.15,2013-11-12 20:50:00,
2013-11-12 15:55:00,32.4,26.3,30.66,NW,304,4.0,11.0,78,0.00,,,0.02,Wunderground v.1.15,2013-11-12 20:55:00,
2013-11-12 16:00:00,32.3,26.5,30.66,WNW,299,4.0,4.0,79,0.00,,,0.02,Wunderground v.1.15,2013-11-12 21:00:00,
2013-11-12 16:05:00,32.3,26.5,30.66,WNW,291,3.0,11.0,79,0.00,,,0.02,Wunderground v.1.15,2013-11-12 21:05:00,
2013-11-12 16:10:00,32.3,26.2,30.66,West,265,3.0,3.0,78,0.00,,,0.02,Wunderground v.1.15,2013-11-12 21:10:00,
2013-11-12 16:20:00,32.4,26.3,30.66,WNW,298,4.0,11.0,78,0.00,,,0.02,Wunderground v.1.15,2013-11-12 21:20:00,
2013-11-12 16:30:00,32.6,26.8,30.66,NW,319,3.0,11.0,79,0.00,,,0.02,Wunderground v.1.15,2013-11-12 21:30:00,
2013-11-12 16:35:00,32.9,26.2,30.67,NNW,334,3.0,11.0,76,0.00,,,0.02,Wunderground v.1.15,2013-11-12 21:35:00,
2013-11-12 16:40:00,33.4,27.0,30.66,WNW,295,3.0,11.0,77,0.00,,,0.02,Wunderground v.1.15,2013-11-12 21:40:00,
2013-11-12 16:45:00,33.5,26.4,30.67,WNW,295,3.0,11.0,75,0.00,,,0.02,Wunderground v.1.15,2013-11-12 21:45:00,
2013-11-12 16:55:00,32.2,24.5,30.67,West,261,5.0,11.0,73,0.00,,,0.02,Wunderground v.1.15,2013-11-12 21:55:00,
2013-11-12 17:00:00,31.7,24.4,30.67,West,280,4.0,11.0,74,0.00,,,0.02,Wunderground v.1.15,2013-11-12 22:00:00,
2013-11-12 17:05:00,31.5,24.8,30.66,WNW,292,3.0,11.0,76,0.00,,,0.02,Wunderground v.1.15,2013-11-12 22:05:00,
2013-11-12 17:10:00,31.3,24.9,30.66,NNW,330,3.0,11.0,77,0.00,,,0.02,Wunderground v.1.15,2013-11-12 22:10:00,
2013-11-12 17:15:00,31.1,24.4,30.66,NW,309,3.0,11.0,76,0.00,,,0.02,Wunderground v.1.15,2013-11-12 22:15:00,
2013-11-12 17:25:00,30.8,24.4,30.66,West,265,2.0,11.0,77,0.00,,,0.02,Wunderground v.1.15,2013-11-12 22:25:00,
2013-11-12 17:30:00,30.6,24.2,30.66,WSW,252,2.0,2.0,77,0.00,,,0.02,Wunderground v.1.15,2013-11-12 22:30:00,
2013-11-12 17:35:00,30.4,24.4,30.66,West,277,1.0,3.0,78,0.00,,,0.02,Wunderground v.1.15,2013-11-12 22:35:00,
2013-11-12 17:45:00,30.0,24.0,30.65,WSW,254,1.0,11.0,78,0.00,,,0.02,Wunderground v.1.15,2013-11-12 22:45:00,
2013-11-12 17:50:00,29.8,24.1,30.65,WNW,294,1.0,11.0,79,0.00,,,0.02,Wunderground v.1.15,2013-11-12 22:50:00,
2013-11-12 17:55:00,29.7,24.0,30.65,WNW,298,1.0,11.0,79,0.00,,,0.02,Wunderground v.1.15,2013-11-12 22:55:00,
2013-11-12 18:00:00,29.5,24.1,30.66,WNW,298,0.0,11.0,80,0.00,,,0.02,Wunderground v.1.15,2013-11-12 23:00:00,
2013-11-12 18:05:00,29.3,23.9,30.65,WNW,298,0.0,11.0,80,0.00,,,0.02,Wunderground v.1.15,2013-11-12 23:05:00,
2013-11-12 18:10:00,29.2,24.1,30.65,WNW,298,0.0,11.0,81,0.00,,,0.02,Wunderground v.1.15,2013-11-12 23:10:00,
2013-11-12 18:15:00,28.9,23.8,30.65,WNW,298,0.0,11.0,81,0.00,,,0.02,Wunderground v.1.15,2013-11-12 23:15:00,
2013-11-12 18:20:00,28.7,23.9,30.65,WNW,296,0.0,11.0,82,0.00,,,0.02,Wunderground v.1.15,2013-11-12 23:20:00,
2013-11-12 18:25:00,28.6,23.8,30.65,WNW,290,1.0,11.0,82,0.00,,,0.02,Wunderground v.1.15,2013-11-12 23:25:00,
2013-11-12 18:30:00,28.5,24.0,30.65,WNW,301,1.0,11.0,83,0.00,,,0.02,Wunderground v.1.15,2013-11-12 23:30:00,
2013-11-12 18:35:00,28.3,23.8,30.65,NW,312,1.0,11.0,83,0.00,,,0.02,Wunderground v.1.15,2013-11-12 23:35:00,
2013-11-12 18:40:00,28.3,23.5,30.66,West,262,2.0,11.0,82,0.00,,,0.02,Wunderground v.1.15,2013-11-12 23:40:00,
2013-11-12 18:50:00,28.3,23.5,30.66,West,268,2.0,2.0,82,0.00,,,0.02,Wunderground v.1.15,2013-11-12 23:50:00,
2013-11-12 18:55:00,28.2,23.4,30.66,West,268,1.0,11.0,82,0.00,,,0.02,Wunderground v.1.15,2013-11-12 23:55:00,
2013-11-12 19:00:00,28.0,23.2,30.66,WNW,294,2.0,11.0,82,0.00,,,0.02,Wunderground v.1.15,2013-11-13 00:00:00,
2013-11-12 19:10:00,27.9,23.1,30.66,NW,317,2.0,11.0,82,0.00,,,0.02,Wunderground v.1.15,2013-11-13 00:10:00,
2013-11-12 19:15:00,27.9,23.1,30.66,NW,315,2.0,11.0,82,0.00,,,0.02,Wunderground v.1.15,2013-11-13 00:15:00,
2013-11-12 19:20:00,27.8,23.0,30.67,NW,309,2.0,2.0,82,0.00,,,0.02,Wunderground v.1.15,2013-11-13 00:20:00,
2013-11-12 19:25:00,27.6,22.8,30.66,NW,311,2.0,3.0,82,0.00,,,0.02,Wunderground v.1.15,2013-11-13 00:25:00,
2013-11-12 19:35:00,27.5,23.0,30.67,WNW,297,2.0,11.0,83,0.00,,,0.02,Wunderground v.1.15,2013-11-13 00:35:00,
2013-11-12 19:40:00,27.5,23.0,30.67,WNW,292,1.0,1.0,83,0.00,,,0.02,Wunderground v.1.15,2013-11-13 00:40:00,
2013-11-12 19:45:00,27.2,22.7,30.66,WNW,292,1.0,11.0,83,0.00,,,0.02,Wunderground v.1.15,2013-11-13 00:45:00,
2013-11-12 19:50:00,27.0,22.5,30.66,WNW,293,1.0,11.0,83,0.00,,,0.02,Wunderground v.1.15,2013-11-13 00:50:00,
2013-11-12 19:55:00,26.9,22.7,30.66,WNW,294,1.0,11.0,84,0.00,,,0.02,Wunderground v.1.15,2013-11-13 00:55:00,
2013-11-12 20:00:00,26.7,22.5,30.66,NW,317,1.0,11.0,84,0.00,,,0.02,Wunderground v.1.15,2013-11-13 01:00:00,
2013-11-12 20:05:00,26.6,22.4,30.66,WNW,285,1.0,11.0,84,0.00,,,0.02,Wunderground v.1.15,2013-11-13 01:05:00,
2013-11-12 20:15:00,26.5,22.3,30.66,WNW,286,1.0,11.0,84,0.00,,,0.02,Wunderground v.1.15,2013-11-13 01:15:00,
2013-11-12 20:20:00,26.4,22.5,30.66,WNW,286,1.0,11.0,85,0.00,,,0.02,Wunderground v.1.15,2013-11-13 01:20:00,
2013-11-12 20:25:00,26.2,22.3,30.66,WNW,286,1.0,11.0,85,0.00,,,0.02,Wunderground v.1.15,2013-11-13 01:25:00,
2013-11-12 20:30:00,26.1,22.2,30.66,WNW,286,1.0,11.0,85,0.00,,,0.02,Wunderground v.1.15,2013-11-13 01:30:00,
2013-11-12 20:35:00,26.0,22.1,30.66,West,276,1.0,11.0,85,0.00,,,0.02,Wunderground v.1.15,2013-11-13 01:35:00,
2013-11-12 20:40:00,25.9,22.0,30.66,West,275,0.0,11.0,85,0.00,,,0.02,Wunderground v.1.15,2013-11-13 01:40:00,
2013-11-12 20:50:00,25.7,22.1,30.66,West,275,1.0,1.0,86,0.00,,,0.02,Wunderground v.1.15,2013-11-13 01:50:00,
2013-11-12 20:55:00,25.6,22.0,30.66,West,275,1.0,11.0,86,0.00,,,0.02,Wunderground v.1.15,2013-11-13 01:55:00,
2013-11-12 21:05:00,25.3,21.7,30.66,West,275,0.0,11.0,86,0.00,,,0.02,Wunderground v.1.15,2013-11-13 02:05:00,
2013-11-12 21:10:00,25.2,21.6,30.66,West,273,0.0,11.0,86,0.00,,,0.02,Wunderground v.1.15,2013-11-13 02:10:00,
2013-11-12 21:15:00,25.1,21.5,30.66,West,280,0.0,11.0,86,0.00,,,0.02,Wunderground v.1.15,2013-11-13 02:15:00,
2013-11-12 21:20:00,25.0,21.7,30.66,West,280,1.0,1.0,87,0.00,,,0.02,Wunderground v.1.15,2013-11-13 02:20:00,
2013-11-12 21:25:00,24.9,21.6,30.67,WNW,292,1.0,11.0,87,0.00,,,0.02,Wunderground v.1.15,2013-11-13 02:25:00,
2013-11-12 21:30:00,24.9,21.6,30.67,West,277,1.0,11.0,87,0.00,,,0.02,Wunderground v.1.15,2013-11-13 02:30:00,
2013-11-12 21:35:00,24.9,21.6,30.67,West,279,1.0,11.0,87,0.00,,,0.02,Wunderground v.1.15,2013-11-13 02:35:00,
2013-11-12 21:45:00,24.8,21.5,30.66,WNW,286,1.0,11.0,87,0.00,,,0.02,Wunderground v.1.15,2013-11-13 02:45:00,
2013-11-12 21:50:00,24.7,21.4,30.67,WNW,286,0.0,11.0,87,0.00,,,0.02,Wunderground v.1.15,2013-11-13 02:50:00,
2013-11-12 22:00:00,24.4,21.4,30.67,WNW,286,1.0,1.0,88,0.00,,,0.02,Wunderground v.1.15,2013-11-13 03:00:00,
2013-11-12 22:05:00,24.3,21.3,30.67,WNW,286,0.0,2.0,88,0.00,,,0.02,Wunderground v.1.15,2013-11-13 03:05:00,
2013-11-12 22:10:00,24.2,21.2,30.67,WNW,286,0.0,11.0,88,0.00,,,0.02,Wunderground v.1.15,2013-11-13 03:10:00,
2013-11-12 22:15:00,24.0,21.0,30.67,WNW,286,0.0,11.0,88,0.00,,,0.02,Wunderground v.1.15,2013-11-13 03:15:00,
2013-11-12 22:20:00,23.9,21.1,30.67,WNW,286,0.0,11.0,89,0.00,,,0.02,Wunderground v.1.15,2013-11-13 03:20:00,
2013-11-12 22:25:00,23.8,21.0,30.67,WNW,286,0.0,11.0,89,0.00,,,0.02,Wunderground v.1.15,2013-11-13 03:25:00,
2013-11-12 22:30:00,23.6,20.8,30.67,WNW,286,0.0,11.0,89,0.00,,,0.02,Wunderground v.1.15,2013-11-13 03:30:00,
2013-11-12 22:35:00,23.4,20.6,30.67,WNW,286,0.0,11.0,89,0.00,,,0.02,Wunderground v.1.15,2013-11-13 03:35:00,
2013-11-12 22:45:00,23.1,20.6,30.66,West,281,0.0,11.0,90,0.00,,,0.02,Wunderground v.1.15,2013-11-13 03:45:00,
2013-11-12 22:50:00,23.0,20.5,30.66,West,281,0.0,11.0,90,0.00,,,0.02,Wunderground v.1.15,2013-11-13 03:50:00,
2013-11-12 22:55:00,22.8,20.3,30.65,West,281,0.0,11.0,90,0.00,,,0.02,Wunderground v.1.15,2013-11-13 03:55:00,
2013-11-12 23:00:00,22.7,20.2,30.65,West,281,0.0,11.0,90,0.00,,,0.02,Wunderground v.1.15,2013-11-13 04:00:00,
2013-11-12 23:05:00,22.7,20.5,30.65,West,279,0.0,11.0,91,0.00,,,0.02,Wunderground v.1.15,2013-11-13 04:05:00,
2013-11-12 23:10:00,22.8,20.6,30.65,West,279,1.0,1.0,91,0.00,,,0.02,Wunderground v.1.15,2013-11-13 04:10:00,
2013-11-12 23:15:00,22.7,20.2,30.65,West,279,1.0,11.0,90,0.00,,,0.02,Wunderground v.1.15,2013-11-13 04:15:00,
2013-11-12 23:20:00,22.5,20.0,30.65,West,279,0.0,11.0,90,0.00,,,0.02,Wunderground v.1.15,2013-11-13 04:20:00,
2013-11-12 23:25:00,22.6,20.1,30.65,West,279,0.0,11.0,90,0.00,,,0.02,Wunderground v.1.15,2013-11-13 04:25:00,
2013-11-12 23:35:00,22.6,20.1,30.66,West,279,0.0,11.0,90,0.00,,,0.02,Wunderground v.1.15,2013-11-13 04:35:00,
2013-11-12 23:40:00,22.5,20.0,30.65,West,279,0.0,11.0,90,0.00,,,0.02,Wunderground v.1.15,2013-11-13 04:40:00,
2013-11-12 23:45:00,22.3,19.8,30.66,West,279,0.0,11.0,90,0.00,,,0.02,Wunderground v.1.15,2013-11-13 04:45:00,
2013-11-12 23:50:00,22.1,19.6,30.66,West,279,0.0,11.0,90,0.00,,,0.02,Wunderground v.1.15,2013-11-13 04:50:00,
2013-11-12 23:55:00,22.0,19.8,30.66,West,280,0.0,11.0,91,0.00,,,0.02,Wunderground v.1.15,2013-11-13 04:55:00,